sensor_id;sensor_type;location;lat;lon;timestamp;P1;durP1;ratioP1;P2;durP2;ratioP2
17283;SDS011;8760;52.248;20.952;2022-09-13T00:00:38;15.93;;;10.00;;
17283;SDS011;8760;52.248;20.952;2022-09-13T00:03:07;12.33;;;9.70;;
17283;SDS011;8760;52.248;20.952;2022-09-13T00:05:35;10.77;;;9.30;;
17283;SDS011;8760;52.248;20.952;2022-09-13T00:08:03;12.33;;;9.90;;
17283;SDS011;8760;52.248;20.952;2022-09-13T00:10:31;14.47;;;10.17;;
17283;SDS011;8760;52.248;20.952;2022-09-13T00:12:59;12.93;;;10.40;;
17283;SDS011;8760;52.248;20.952;2022-09-13T00:15:26;14.47;;;9.90;;
17283;SDS011;8760;52.248;20.952;2022-09-13T00:17:53;12.03;;;9.70;;
17283;SDS011;8760;52.248;20.952;2022-09-13T00:20:21;11.47;;;9.90;;
17283;SDS011;8760;52.248;20.952;2022-09-13T00:22:48;10.60;;;9.50;;
17283;SDS011;8760;52.248;20.952;2022-09-13T00:25:15;10.90;;;9.80;;
17283;SDS011;8760;52.248;20.952;2022-09-13T00:27:42;12.20;;;9.50;;
17283;SDS011;8760;52.248;20.952;2022-09-13T00:30:10;10.60;;;9.37;;
17283;SDS011;8760;52.248;20.952;2022-09-13T00:32:37;12.30;;;9.63;;
17283;SDS011;8760;52.248;20.952;2022-09-13T00:35:05;15.53;;;10.23;;
17283;SDS011;8760;52.248;20.952;2022-09-13T00:37:33;11.30;;;10.10;;
17283;SDS011;8760;52.248;20.952;2022-09-13T00:40:00;11.33;;;9.97;;
17283;SDS011;8760;52.248;20.952;2022-09-13T00:42:29;12.30;;;9.50;;
17283;SDS011;8760;52.248;20.952;2022-09-13T00:44:58;14.60;;;10.60;;
17283;SDS011;8760;52.248;20.952;2022-09-13T00:47:28;12.43;;;9.67;;
17283;SDS011;8760;52.248;20.952;2022-09-13T00:50:00;12.03;;;9.90;;
17283;SDS011;8760;52.248;20.952;2022-09-13T00:52:33;12.00;;;10.43;;
17283;SDS011;8760;52.248;20.952;2022-09-13T00:55:03;13.63;;;10.43;;
17283;SDS011;8760;52.248;20.952;2022-09-13T00:57:33;11.47;;;10.27;;
17283;SDS011;8760;52.248;20.952;2022-09-13T01:00:03;12.43;;;10.17;;
17283;SDS011;8760;52.248;20.952;2022-09-13T01:02:35;16.53;;;10.37;;
17283;SDS011;8760;52.248;20.952;2022-09-13T01:05:03;12.03;;;9.50;;
17283;SDS011;8760;52.248;20.952;2022-09-13T01:07:31;13.03;;;10.53;;
17283;SDS011;8760;52.248;20.952;2022-09-13T01:10:00;12.57;;;9.70;;
17283;SDS011;8760;52.248;20.952;2022-09-13T01:12:32;11.10;;;9.90;;
17283;SDS011;8760;52.248;20.952;2022-09-13T01:15:05;11.50;;;10.03;;
17283;SDS011;8760;52.248;20.952;2022-09-13T01:17:32;11.70;;;10.43;;
17283;SDS011;8760;52.248;20.952;2022-09-13T01:20:00;15.67;;;10.13;;
17283;SDS011;8760;52.248;20.952;2022-09-13T01:22:38;15.67;;;10.37;;
17283;SDS011;8760;52.248;20.952;2022-09-13T01:28:54;11.60;;;10.27;;
17283;SDS011;8760;52.248;20.952;2022-09-13T01:31:44;13.30;;;9.63;;
17283;SDS011;8760;52.248;20.952;2022-09-13T01:34:22;12.17;;;10.10;;
17283;SDS011;8760;52.248;20.952;2022-09-13T01:37:05;12.10;;;9.80;;
17283;SDS011;8760;52.248;20.952;2022-09-13T01:39:48;13.03;;;9.90;;
17283;SDS011;8760;52.248;20.952;2022-09-13T01:42:27;13.43;;;10.23;;
17283;SDS011;8760;52.248;20.952;2022-09-13T01:45:02;10.90;;;9.70;;
17283;SDS011;8760;52.248;20.952;2022-09-13T01:47:40;14.00;;;10.13;;
17283;SDS011;8760;52.248;20.952;2022-09-13T01:50:15;12.23;;;9.63;;
17283;SDS011;8760;52.248;20.952;2022-09-13T01:52:48;11.27;;;9.37;;
17283;SDS011;8760;52.248;20.952;2022-09-13T01:55:21;12.10;;;10.13;;
17283;SDS011;8760;52.248;20.952;2022-09-13T01:57:55;14.23;;;10.27;;
17283;SDS011;8760;52.248;20.952;2022-09-13T02:00:28;14.53;;;10.43;;
17283;SDS011;8760;52.248;20.952;2022-09-13T02:03:02;14.73;;;10.77;;
17283;SDS011;8760;52.248;20.952;2022-09-13T02:05:32;14.90;;;10.70;;
17283;SDS011;8760;52.248;20.952;2022-09-13T02:08:05;12.77;;;10.60;;
17283;SDS011;8760;52.248;20.952;2022-09-13T02:10:37;12.97;;;10.47;;
17283;SDS011;8760;52.248;20.952;2022-09-13T02:13:08;13.63;;;10.90;;
17283;SDS011;8760;52.248;20.952;2022-09-13T02:15:38;13.40;;;10.70;;
17283;SDS011;8760;52.248;20.952;2022-09-13T02:18:11;12.10;;;10.57;;
17283;SDS011;8760;52.248;20.952;2022-09-13T02:20:42;12.63;;;10.50;;
17283;SDS011;8760;52.248;20.952;2022-09-13T02:23:12;13.17;;;10.67;;
17283;SDS011;8760;52.248;20.952;2022-09-13T02:25:41;15.20;;;10.13;;
17283;SDS011;8760;52.248;20.952;2022-09-13T02:28:11;12.50;;;10.43;;
17283;SDS011;8760;52.248;20.952;2022-09-13T02:30:47;15.47;;;11.77;;
17283;SDS011;8760;52.248;20.952;2022-09-13T02:33:20;13.17;;;11.07;;
17283;SDS011;8760;52.248;20.952;2022-09-13T02:35:52;13.03;;;10.70;;
17283;SDS011;8760;52.248;20.952;2022-09-13T02:38:24;14.40;;;10.53;;
17283;SDS011;8760;52.248;20.952;2022-09-13T02:40:56;13.37;;;11.50;;
17283;SDS011;8760;52.248;20.952;2022-09-13T02:43:26;13.57;;;11.00;;
17283;SDS011;8760;52.248;20.952;2022-09-13T02:46:01;14.63;;;10.93;;
17283;SDS011;8760;52.248;20.952;2022-09-13T02:48:42;12.57;;;11.10;;
17283;SDS011;8760;52.248;20.952;2022-09-13T02:51:16;11.87;;;10.57;;
17283;SDS011;8760;52.248;20.952;2022-09-13T02:53:52;11.73;;;10.47;;
17283;SDS011;8760;52.248;20.952;2022-09-13T02:56:28;14.00;;;10.97;;
17283;SDS011;8760;52.248;20.952;2022-09-13T02:59:00;13.47;;;10.93;;
17283;SDS011;8760;52.248;20.952;2022-09-13T03:01:31;17.23;;;10.90;;
17283;SDS011;8760;52.248;20.952;2022-09-13T03:04:00;14.43;;;11.37;;
17283;SDS011;8760;52.248;20.952;2022-09-13T03:06:27;12.40;;;11.10;;
17283;SDS011;8760;52.248;20.952;2022-09-13T03:08:55;13.23;;;10.90;;
17283;SDS011;8760;52.248;20.952;2022-09-13T03:11:28;12.97;;;11.40;;
17283;SDS011;8760;52.248;20.952;2022-09-13T03:14:07;13.10;;;11.17;;
17283;SDS011;8760;52.248;20.952;2022-09-13T03:16:51;13.27;;;11.00;;
17283;SDS011;8760;52.248;20.952;2022-09-13T03:19:39;13.40;;;11.30;;
17283;SDS011;8760;52.248;20.952;2022-09-13T03:22:25;14.30;;;11.47;;
17283;SDS011;8760;52.248;20.952;2022-09-13T03:25:04;15.90;;;11.00;;
17283;SDS011;8760;52.248;20.952;2022-09-13T03:27:39;13.63;;;11.13;;
17283;SDS011;8760;52.248;20.952;2022-09-13T03:30:14;12.73;;;10.53;;
17283;SDS011;8760;52.248;20.952;2022-09-13T03:32:43;14.80;;;10.77;;
17283;SDS011;8760;52.248;20.952;2022-09-13T03:35:19;12.87;;;10.37;;
17283;SDS011;8760;52.248;20.952;2022-09-13T03:37:54;13.50;;;10.87;;
17283;SDS011;8760;52.248;20.952;2022-09-13T03:40:27;14.13;;;11.17;;
17283;SDS011;8760;52.248;20.952;2022-09-13T03:43:04;14.27;;;11.00;;
17283;SDS011;8760;52.248;20.952;2022-09-13T03:45:39;12.93;;;10.87;;
17283;SDS011;8760;52.248;20.952;2022-09-13T03:48:08;15.87;;;11.33;;
17283;SDS011;8760;52.248;20.952;2022-09-13T03:50:38;15.60;;;11.07;;
17283;SDS011;8760;52.248;20.952;2022-09-13T03:53:07;15.20;;;10.60;;
17283;SDS011;8760;52.248;20.952;2022-09-13T03:55:37;14.30;;;11.13;;
17283;SDS011;8760;52.248;20.952;2022-09-13T03:58:06;15.20;;;10.97;;
17283;SDS011;8760;52.248;20.952;2022-09-13T04:00:35;13.77;;;11.30;;
17283;SDS011;8760;52.248;20.952;2022-09-13T04:03:04;12.03;;;10.10;;
17283;SDS011;8760;52.248;20.952;2022-09-13T04:05:31;13.53;;;10.23;;
17283;SDS011;8760;52.248;20.952;2022-09-13T04:08:00;15.07;;;12.03;;
17283;SDS011;8760;52.248;20.952;2022-09-13T04:10:27;16.57;;;10.63;;
17283;SDS011;8760;52.248;20.952;2022-09-13T04:12:55;12.03;;;10.07;;
17283;SDS011;8760;52.248;20.952;2022-09-13T04:15:23;16.37;;;10.60;;
17283;SDS011;8760;52.248;20.952;2022-09-13T04:17:50;13.00;;;9.60;;
17283;SDS011;8760;52.248;20.952;2022-09-13T04:20:17;12.23;;;9.50;;
17283;SDS011;8760;52.248;20.952;2022-09-13T04:22:49;11.73;;;9.57;;
17283;SDS011;8760;52.248;20.952;2022-09-13T04:25:18;12.50;;;10.57;;
17283;SDS011;8760;52.248;20.952;2022-09-13T04:27:45;12.30;;;10.40;;
17283;SDS011;8760;52.248;20.952;2022-09-13T04:30:12;13.23;;;10.70;;
17283;SDS011;8760;52.248;20.952;2022-09-13T04:32:40;14.13;;;10.73;;
17283;SDS011;8760;52.248;20.952;2022-09-13T04:35:08;12.73;;;9.73;;
17283;SDS011;8760;52.248;20.952;2022-09-13T04:37:36;14.73;;;10.60;;
17283;SDS011;8760;52.248;20.952;2022-09-13T04:40:03;17.37;;;11.23;;
17283;SDS011;8760;52.248;20.952;2022-09-13T04:42:32;15.03;;;10.80;;
17283;SDS011;8760;52.248;20.952;2022-09-13T04:44:58;15.23;;;10.57;;
17283;SDS011;8760;52.248;20.952;2022-09-13T04:47:25;14.20;;;10.77;;
17283;SDS011;8760;52.248;20.952;2022-09-13T04:49:52;14.80;;;11.80;;
17283;SDS011;8760;52.248;20.952;2022-09-13T04:52:19;13.83;;;10.90;;
17283;SDS011;8760;52.248;20.952;2022-09-13T04:54:46;14.23;;;11.23;;
17283;SDS011;8760;52.248;20.952;2022-09-13T04:57:12;17.20;;;10.83;;
17283;SDS011;8760;52.248;20.952;2022-09-13T04:59:42;14.50;;;11.03;;
17283;SDS011;8760;52.248;20.952;2022-09-13T05:02:09;14.93;;;10.73;;
17283;SDS011;8760;52.248;20.952;2022-09-13T05:04:35;14.50;;;11.03;;
17283;SDS011;8760;52.248;20.952;2022-09-13T05:07:02;14.47;;;11.17;;
17283;SDS011;8760;52.248;20.952;2022-09-13T05:09:30;12.23;;;10.63;;
17283;SDS011;8760;52.248;20.952;2022-09-13T05:11:56;16.03;;;11.07;;
17283;SDS011;8760;52.248;20.952;2022-09-13T05:14:24;13.77;;;11.53;;
17283;SDS011;8760;52.248;20.952;2022-09-13T05:16:52;17.07;;;12.27;;
17283;SDS011;8760;52.248;20.952;2022-09-13T05:19:19;11.97;;;10.67;;
17283;SDS011;8760;52.248;20.952;2022-09-13T05:21:46;15.17;;;11.37;;
17283;SDS011;8760;52.248;20.952;2022-09-13T05:24:12;15.40;;;11.03;;
17283;SDS011;8760;52.248;20.952;2022-09-13T05:26:39;14.97;;;10.43;;
17283;SDS011;8760;52.248;20.952;2022-09-13T05:29:06;14.80;;;11.17;;
17283;SDS011;8760;52.248;20.952;2022-09-13T05:31:34;16.30;;;11.33;;
17283;SDS011;8760;52.248;20.952;2022-09-13T05:34:04;17.03;;;11.93;;
17283;SDS011;8760;52.248;20.952;2022-09-13T05:36:32;15.23;;;11.40;;
17283;SDS011;8760;52.248;20.952;2022-09-13T05:38:59;19.23;;;11.83;;
17283;SDS011;8760;52.248;20.952;2022-09-13T05:41:26;15.07;;;11.73;;
17283;SDS011;8760;52.248;20.952;2022-09-13T05:43:52;15.87;;;12.40;;
17283;SDS011;8760;52.248;20.952;2022-09-13T05:46:20;19.07;;;13.07;;
17283;SDS011;8760;52.248;20.952;2022-09-13T05:48:47;14.23;;;12.33;;
17283;SDS011;8760;52.248;20.952;2022-09-13T05:51:16;18.47;;;14.17;;
17283;SDS011;8760;52.248;20.952;2022-09-13T05:53:45;16.30;;;13.30;;
17283;SDS011;8760;52.248;20.952;2022-09-13T05:56:14;19.73;;;15.60;;
17283;SDS011;8760;52.248;20.952;2022-09-13T05:58:42;16.00;;;13.83;;
17283;SDS011;8760;52.248;20.952;2022-09-13T06:01:10;21.63;;;16.10;;
17283;SDS011;8760;52.248;20.952;2022-09-13T06:03:38;21.03;;;15.67;;
17283;SDS011;8760;52.248;20.952;2022-09-13T06:06:05;17.37;;;14.97;;
17283;SDS011;8760;52.248;20.952;2022-09-13T06:08:34;21.83;;;15.53;;
17283;SDS011;8760;52.248;20.952;2022-09-13T06:11:02;20.70;;;15.23;;
17283;SDS011;8760;52.248;20.952;2022-09-13T06:13:30;19.23;;;15.40;;
17283;SDS011;8760;52.248;20.952;2022-09-13T06:15:58;24.17;;;15.47;;
17283;SDS011;8760;52.248;20.952;2022-09-13T06:18:26;21.80;;;16.13;;
17283;SDS011;8760;52.248;20.952;2022-09-13T06:20:56;20.13;;;17.00;;
17283;SDS011;8760;52.248;20.952;2022-09-13T06:23:24;21.03;;;17.47;;
17283;SDS011;8760;52.248;20.952;2022-09-13T06:25:59;24.03;;;18.00;;
17283;SDS011;8760;52.248;20.952;2022-09-13T06:28:26;22.37;;;19.50;;
17283;SDS011;8760;52.248;20.952;2022-09-13T06:30:58;21.93;;;18.63;;
17283;SDS011;8760;52.248;20.952;2022-09-13T06:33:25;21.80;;;19.47;;
17283;SDS011;8760;52.248;20.952;2022-09-13T06:35:52;21.00;;;15.80;;
17283;SDS011;8760;52.248;20.952;2022-09-13T06:38:19;19.20;;;14.63;;
17283;SDS011;8760;52.248;20.952;2022-09-13T06:40:46;15.87;;;13.33;;
17283;SDS011;8760;52.248;20.952;2022-09-13T06:43:14;17.40;;;14.27;;
17283;SDS011;8760;52.248;20.952;2022-09-13T06:45:41;18.43;;;12.03;;
17283;SDS011;8760;52.248;20.952;2022-09-13T06:48:07;13.63;;;10.57;;
17283;SDS011;8760;52.248;20.952;2022-09-13T06:50:34;13.67;;;11.00;;
17283;SDS011;8760;52.248;20.952;2022-09-13T06:53:01;13.13;;;10.83;;
17283;SDS011;8760;52.248;20.952;2022-09-13T06:55:28;9.73;;;8.73;;
17283;SDS011;8760;52.248;20.952;2022-09-13T06:57:55;10.00;;;8.97;;
17283;SDS011;8760;52.248;20.952;2022-09-13T07:00:24;10.53;;;9.07;;
17283;SDS011;8760;52.248;20.952;2022-09-13T07:02:51;9.73;;;8.55;;
17283;SDS011;8760;52.248;20.952;2022-09-13T07:05:18;12.98;;;9.93;;
17283;SDS011;8760;52.248;20.952;2022-09-13T07:07:45;10.35;;;8.85;;
17283;SDS011;8760;52.248;20.952;2022-09-13T07:10:12;11.25;;;9.30;;
17283;SDS011;8760;52.248;20.952;2022-09-13T07:12:39;13.13;;;10.63;;
17283;SDS011;8760;52.248;20.952;2022-09-13T07:15:06;13.20;;;9.57;;
17283;SDS011;8760;52.248;20.952;2022-09-13T07:17:35;12.48;;;11.18;;
17283;SDS011;8760;52.248;20.952;2022-09-13T07:20:02;11.57;;;9.70;;
17283;SDS011;8760;52.248;20.952;2022-09-13T07:22:31;13.25;;;9.45;;
17283;SDS011;8760;52.248;20.952;2022-09-13T07:24:58;13.18;;;9.73;;
17283;SDS011;8760;52.248;20.952;2022-09-13T07:27:25;11.30;;;9.15;;
17283;SDS011;8760;52.248;20.952;2022-09-13T07:29:52;9.68;;;8.30;;
17283;SDS011;8760;52.248;20.952;2022-09-13T07:32:19;7.63;;;6.82;;
17283;SDS011;8760;52.248;20.952;2022-09-13T07:34:48;12.30;;;7.47;;
17283;SDS011;8760;52.248;20.952;2022-09-13T07:37:15;7.53;;;6.78;;
17283;SDS011;8760;52.248;20.952;2022-09-13T07:39:42;8.07;;;7.22;;
17283;SDS011;8760;52.248;20.952;2022-09-13T07:42:09;9.52;;;7.18;;
17283;SDS011;8760;52.248;20.952;2022-09-13T07:44:35;11.60;;;7.93;;
17283;SDS011;8760;52.248;20.952;2022-09-13T07:47:02;9.30;;;8.15;;
17283;SDS011;8760;52.248;20.952;2022-09-13T07:49:29;9.55;;;6.47;;
17283;SDS011;8760;52.248;20.952;2022-09-13T07:51:57;9.05;;;6.57;;
17283;SDS011;8760;52.248;20.952;2022-09-13T07:54:24;9.13;;;7.45;;
17283;SDS011;8760;52.248;20.952;2022-09-13T07:56:51;9.23;;;6.95;;
17283;SDS011;8760;52.248;20.952;2022-09-13T07:59:17;8.15;;;6.18;;
17283;SDS011;8760;52.248;20.952;2022-09-13T08:01:45;9.32;;;5.80;;
17283;SDS011;8760;52.248;20.952;2022-09-13T08:04:13;7.20;;;5.60;;
17283;SDS011;8760;52.248;20.952;2022-09-13T08:06:42;8.15;;;5.35;;
17283;SDS011;8760;52.248;20.952;2022-09-13T08:09:12;6.85;;;5.57;;
17283;SDS011;8760;52.248;20.952;2022-09-13T08:11:40;6.43;;;5.00;;
17283;SDS011;8760;52.248;20.952;2022-09-13T08:14:09;6.97;;;4.70;;
17283;SDS011;8760;52.248;20.952;2022-09-13T08:16:38;5.82;;;4.93;;
17283;SDS011;8760;52.248;20.952;2022-09-13T08:19:05;8.30;;;4.68;;
17283;SDS011;8760;52.248;20.952;2022-09-13T08:21:33;8.23;;;4.22;;
17283;SDS011;8760;52.248;20.952;2022-09-13T08:24:02;4.97;;;3.85;;
17283;SDS011;8760;52.248;20.952;2022-09-13T08:26:32;8.98;;;6.47;;
17283;SDS011;8760;52.248;20.952;2022-09-13T08:29:00;4.63;;;4.10;;
17283;SDS011;8760;52.248;20.952;2022-09-13T08:31:29;6.38;;;3.83;;
17283;SDS011;8760;52.248;20.952;2022-09-13T08:33:56;6.95;;;4.15;;
17283;SDS011;8760;52.248;20.952;2022-09-13T08:36:24;7.00;;;3.53;;
17283;SDS011;8760;52.248;20.952;2022-09-13T08:38:51;4.68;;;4.22;;
17283;SDS011;8760;52.248;20.952;2022-09-13T08:41:26;4.75;;;3.70;;
17283;SDS011;8760;52.248;20.952;2022-09-13T08:44:15;6.40;;;3.40;;
17283;SDS011;8760;52.248;20.952;2022-09-13T08:46:47;7.70;;;3.80;;
17283;SDS011;8760;52.248;20.952;2022-09-13T08:49:15;5.47;;;3.10;;
17283;SDS011;8760;52.248;20.952;2022-09-13T08:51:46;4.03;;;3.00;;
17283;SDS011;8760;52.248;20.952;2022-09-13T08:54:15;2.60;;;2.35;;
17283;SDS011;8760;52.248;20.952;2022-09-13T08:56:45;4.28;;;2.70;;
17283;SDS011;8760;52.248;20.952;2022-09-13T08:59:25;6.43;;;2.90;;
17283;SDS011;8760;52.248;20.952;2022-09-13T09:02:20;5.10;;;2.45;;
17283;SDS011;8760;52.248;20.952;2022-09-13T09:05:09;3.83;;;2.50;;
17283;SDS011;8760;52.248;20.952;2022-09-13T09:07:41;6.70;;;2.33;;
17283;SDS011;8760;52.248;20.952;2022-09-13T09:10:13;3.95;;;2.45;;
17283;SDS011;8760;52.248;20.952;2022-09-13T09:12:44;3.88;;;2.40;;
17283;SDS011;8760;52.248;20.952;2022-09-13T09:15:16;4.38;;;2.15;;
17283;SDS011;8760;52.248;20.952;2022-09-13T09:17:47;5.85;;;2.60;;
17283;SDS011;8760;52.248;20.952;2022-09-13T09:20:21;5.32;;;2.78;;
17283;SDS011;8760;52.248;20.952;2022-09-13T09:22:51;4.22;;;3.20;;
17283;SDS011;8760;52.248;20.952;2022-09-13T09:25:19;4.68;;;2.83;;
17283;SDS011;8760;52.248;20.952;2022-09-13T09:27:48;2.30;;;1.73;;
17283;SDS011;8760;52.248;20.952;2022-09-13T09:30:16;3.63;;;2.17;;
17283;SDS011;8760;52.248;20.952;2022-09-13T09:32:48;5.18;;;2.42;;
17283;SDS011;8760;52.248;20.952;2022-09-13T09:35:32;4.53;;;2.55;;
17283;SDS011;8760;52.248;20.952;2022-09-13T09:38:13;4.15;;;1.92;;
17283;SDS011;8760;52.248;20.952;2022-09-13T09:40:51;3.38;;;2.30;;
17283;SDS011;8760;52.248;20.952;2022-09-13T09:43:19;2.67;;;2.13;;
17283;SDS011;8760;52.248;20.952;2022-09-13T09:45:53;5.88;;;2.42;;
17283;SDS011;8760;52.248;20.952;2022-09-13T09:48:25;5.97;;;3.78;;
17283;SDS011;8760;52.248;20.952;2022-09-13T09:50:55;19.20;;;10.43;;
17283;SDS011;8760;52.248;20.952;2022-09-13T09:53:24;4.93;;;3.17;;
17283;SDS011;8760;52.248;20.952;2022-09-13T09:55:56;6.65;;;4.28;;
17283;SDS011;8760;52.248;20.952;2022-09-13T09:58:37;2.22;;;1.95;;
17283;SDS011;8760;52.248;20.952;2022-09-13T10:01:14;2.47;;;2.08;;
17283;SDS011;8760;52.248;20.952;2022-09-13T10:03:48;4.63;;;1.83;;
17283;SDS011;8760;52.248;20.952;2022-09-13T10:06:18;4.47;;;2.30;;
17283;SDS011;8760;52.248;20.952;2022-09-13T10:08:47;4.57;;;2.08;;
17283;SDS011;8760;52.248;20.952;2022-09-13T10:11:23;4.03;;;2.30;;
17283;SDS011;8760;52.248;20.952;2022-09-13T10:14:02;4.90;;;2.20;;
17283;SDS011;8760;52.248;20.952;2022-09-13T10:16:30;3.28;;;1.80;;
17283;SDS011;8760;52.248;20.952;2022-09-13T10:19:15;3.63;;;1.90;;
17283;SDS011;8760;52.248;20.952;2022-09-13T10:21:59;4.85;;;2.45;;
17283;SDS011;8760;52.248;20.952;2022-09-13T10:24:27;3.97;;;1.90;;
17283;SDS011;8760;52.248;20.952;2022-09-13T10:26:54;4.03;;;1.83;;
17283;SDS011;8760;52.248;20.952;2022-09-13T10:29:21;5.53;;;3.50;;
17283;SDS011;8760;52.248;20.952;2022-09-13T10:31:51;7.10;;;2.40;;
17283;SDS011;8760;52.248;20.952;2022-09-13T10:34:22;6.63;;;2.10;;
17283;SDS011;8760;52.248;20.952;2022-09-13T10:36:52;2.45;;;1.88;;
17283;SDS011;8760;52.248;20.952;2022-09-13T10:39:22;4.60;;;2.13;;
17283;SDS011;8760;52.248;20.952;2022-09-13T10:41:51;5.65;;;2.20;;
17283;SDS011;8760;52.248;20.952;2022-09-13T10:44:28;6.93;;;5.05;;
17283;SDS011;8760;52.248;20.952;2022-09-13T10:47:02;2.42;;;1.80;;
17283;SDS011;8760;52.248;20.952;2022-09-13T10:49:39;2.40;;;1.80;;
17283;SDS011;8760;52.248;20.952;2022-09-13T10:52:21;3.38;;;1.98;;
17283;SDS011;8760;52.248;20.952;2022-09-13T10:54:51;3.63;;;1.92;;
17283;SDS011;8760;52.248;20.952;2022-09-13T10:57:31;3.30;;;1.80;;
17283;SDS011;8760;52.248;20.952;2022-09-13T10:59:59;4.50;;;2.00;;
17283;SDS011;8760;52.248;20.952;2022-09-13T11:02:35;2.40;;;1.70;;
17283;SDS011;8760;52.248;20.952;2022-09-13T11:05:18;5.03;;;1.90;;
17283;SDS011;8760;52.248;20.952;2022-09-13T11:07:52;4.93;;;2.33;;
17283;SDS011;8760;52.248;20.952;2022-09-13T11:10:37;2.00;;;1.80;;
17283;SDS011;8760;52.248;20.952;2022-09-13T11:13:16;6.47;;;2.20;;
17283;SDS011;8760;52.248;20.952;2022-09-13T11:15:53;5.20;;;2.40;;
17283;SDS011;8760;52.248;20.952;2022-09-13T11:18:28;3.38;;;1.92;;
17283;SDS011;8760;52.248;20.952;2022-09-13T11:21:25;4.15;;;2.28;;
17283;SDS011;8760;52.248;20.952;2022-09-13T11:24:05;4.38;;;3.22;;
17283;SDS011;8760;52.248;20.952;2022-09-13T11:26:43;2.38;;;2.17;;
17283;SDS011;8760;52.248;20.952;2022-09-13T11:29:17;2.30;;;2.00;;
17283;SDS011;8760;52.248;20.952;2022-09-13T11:31:55;3.72;;;2.47;;
17283;SDS011;8760;52.248;20.952;2022-09-13T11:34:34;3.17;;;2.08;;
17283;SDS011;8760;52.248;20.952;2022-09-13T11:37:15;5.35;;;2.03;;
17283;SDS011;8760;52.248;20.952;2022-09-13T11:39:57;2.28;;;2.05;;
17283;SDS011;8760;52.248;20.952;2022-09-13T11:42:39;4.88;;;2.30;;
17283;SDS011;8760;52.248;20.952;2022-09-13T11:45:16;3.00;;;2.40;;
17283;SDS011;8760;52.248;20.952;2022-09-13T11:47:58;5.35;;;2.00;;
17283;SDS011;8760;52.248;20.952;2022-09-13T11:50:43;4.53;;;2.72;;
17283;SDS011;8760;52.248;20.952;2022-09-13T11:53:33;3.17;;;2.45;;
17283;SDS011;8760;52.248;20.952;2022-09-13T11:56:15;3.72;;;2.30;;
17283;SDS011;8760;52.248;20.952;2022-09-13T11:58:48;5.07;;;1.95;;
17283;SDS011;8760;52.248;20.952;2022-09-13T12:01:19;6.35;;;2.25;;
17283;SDS011;8760;52.248;20.952;2022-09-13T12:03:49;5.03;;;2.70;;
17283;SDS011;8760;52.248;20.952;2022-09-13T12:06:23;3.47;;;2.03;;
17283;SDS011;8760;52.248;20.952;2022-09-13T12:08:54;4.75;;;2.47;;
17283;SDS011;8760;52.248;20.952;2022-09-13T12:11:27;10.82;;;3.40;;
17283;SDS011;8760;52.248;20.952;2022-09-13T12:13:58;5.35;;;2.85;;
17283;SDS011;8760;52.248;20.952;2022-09-13T12:16:29;4.50;;;2.63;;
17283;SDS011;8760;52.248;20.952;2022-09-13T12:18:59;5.40;;;2.85;;
17283;SDS011;8760;52.248;20.952;2022-09-13T12:21:29;4.43;;;2.95;;
17283;SDS011;8760;52.248;20.952;2022-09-13T12:24:01;6.95;;;4.65;;
17283;SDS011;8760;52.248;20.952;2022-09-13T12:26:34;5.55;;;3.10;;
17283;SDS011;8760;52.248;20.952;2022-09-13T12:29:07;5.35;;;4.65;;
17283;SDS011;8760;52.248;20.952;2022-09-13T12:31:40;6.40;;;5.10;;
17283;SDS011;8760;52.248;20.952;2022-09-13T12:34:08;7.30;;;3.22;;
17283;SDS011;8760;52.248;20.952;2022-09-13T12:36:47;3.67;;;3.22;;
17283;SDS011;8760;52.248;20.952;2022-09-13T12:42:39;4.43;;;3.03;;
17283;SDS011;8760;52.248;20.952;2022-09-13T12:45:34;3.22;;;2.90;;
17283;SDS011;8760;52.248;20.952;2022-09-13T12:48:19;3.15;;;2.85;;
17283;SDS011;8760;52.248;20.952;2022-09-13T12:50:57;5.85;;;3.40;;
17283;SDS011;8760;52.248;20.952;2022-09-13T12:53:51;8.50;;;5.90;;
17283;SDS011;8760;52.248;20.952;2022-09-13T12:56:35;7.95;;;5.82;;
17283;SDS011;8760;52.248;20.952;2022-09-13T12:59:18;4.90;;;3.63;;
17283;SDS011;8760;52.248;20.952;2022-09-13T13:01:59;7.25;;;4.70;;
17283;SDS011;8760;52.248;20.952;2022-09-13T13:04:29;4.68;;;3.60;;
17283;SDS011;8760;52.248;20.952;2022-09-13T13:06:59;4.80;;;3.22;;
17283;SDS011;8760;52.248;20.952;2022-09-13T13:09:32;6.35;;;3.17;;
17283;SDS011;8760;52.248;20.952;2022-09-13T13:12:05;4.43;;;2.90;;
17283;SDS011;8760;52.248;20.952;2022-09-13T13:14:43;4.88;;;3.38;;
17283;SDS011;8760;52.248;20.952;2022-09-13T13:17:33;6.10;;;3.50;;
17283;SDS011;8760;52.248;20.952;2022-09-13T13:23:19;10.13;;;3.60;;
17283;SDS011;8760;52.248;20.952;2022-09-13T13:25:56;6.20;;;3.28;;
17283;SDS011;8760;52.248;20.952;2022-09-13T13:31:34;7.93;;;6.13;;
17283;SDS011;8760;52.248;20.952;2022-09-13T13:34:19;5.40;;;3.83;;
17283;SDS011;8760;52.248;20.952;2022-09-13T13:37:00;6.20;;;3.75;;
17283;SDS011;8760;52.248;20.952;2022-09-13T13:39:34;4.18;;;3.60;;
17283;SDS011;8760;52.248;20.952;2022-09-13T13:42:11;7.00;;;3.65;;
17283;SDS011;8760;52.248;20.952;2022-09-13T13:44:54;3.90;;;3.50;;
17283;SDS011;8760;52.248;20.952;2022-09-13T13:47:41;7.50;;;6.05;;
17283;SDS011;8760;52.248;20.952;2022-09-13T13:50:26;4.50;;;3.58;;
17283;SDS011;8760;52.248;20.952;2022-09-13T13:52:55;5.88;;;4.20;;
17283;SDS011;8760;52.248;20.952;2022-09-13T13:55:36;5.45;;;4.00;;
17283;SDS011;8760;52.248;20.952;2022-09-13T13:58:11;16.25;;;5.25;;
17283;SDS011;8760;52.248;20.952;2022-09-13T14:00:51;4.90;;;4.03;;
17283;SDS011;8760;52.248;20.952;2022-09-13T14:03:22;6.57;;;3.88;;
17283;SDS011;8760;52.248;20.952;2022-09-13T14:05:59;8.10;;;4.28;;
17283;SDS011;8760;52.248;20.952;2022-09-13T14:08:36;4.38;;;3.97;;
17283;SDS011;8760;52.248;20.952;2022-09-13T14:11:18;4.90;;;3.50;;
17283;SDS011;8760;52.248;20.952;2022-09-13T14:14:02;4.22;;;3.72;;
17283;SDS011;8760;52.248;20.952;2022-09-13T14:16:48;6.25;;;4.22;;
17283;SDS011;8760;52.248;20.952;2022-09-13T14:19:25;6.80;;;3.78;;
17283;SDS011;8760;52.248;20.952;2022-09-13T14:22:08;4.82;;;3.65;;
17283;SDS011;8760;52.248;20.952;2022-09-13T14:24:39;4.13;;;3.72;;
17283;SDS011;8760;52.248;20.952;2022-09-13T14:27:12;5.57;;;3.20;;
17283;SDS011;8760;52.248;20.952;2022-09-13T14:29:46;5.97;;;3.85;;
17283;SDS011;8760;52.248;20.952;2022-09-13T14:32:15;6.43;;;4.07;;
17283;SDS011;8760;52.248;20.952;2022-09-13T14:34:53;4.38;;;3.42;;
17283;SDS011;8760;52.248;20.952;2022-09-13T14:37:24;3.95;;;3.47;;
17283;SDS011;8760;52.248;20.952;2022-09-13T14:39:54;5.45;;;3.97;;
17283;SDS011;8760;52.248;20.952;2022-09-13T14:42:22;4.25;;;3.53;;
17283;SDS011;8760;52.248;20.952;2022-09-13T14:44:51;4.85;;;3.67;;
17283;SDS011;8760;52.248;20.952;2022-09-13T14:47:19;9.25;;;4.13;;
17283;SDS011;8760;52.248;20.952;2022-09-13T14:49:53;6.35;;;3.85;;
17283;SDS011;8760;52.248;20.952;2022-09-13T14:52:29;6.82;;;3.97;;
17283;SDS011;8760;52.248;20.952;2022-09-13T14:55:00;5.28;;;3.80;;
17283;SDS011;8760;52.248;20.952;2022-09-13T14:57:33;6.18;;;4.35;;
17283;SDS011;8760;52.248;20.952;2022-09-13T15:00:05;6.78;;;4.00;;
17283;SDS011;8760;52.248;20.952;2022-09-13T15:02:42;5.22;;;4.20;;
17283;SDS011;8760;52.248;20.952;2022-09-13T15:05:15;5.25;;;4.18;;
17283;SDS011;8760;52.248;20.952;2022-09-13T15:07:43;6.28;;;3.95;;
17283;SDS011;8760;52.248;20.952;2022-09-13T15:10:18;6.60;;;4.00;;
17283;SDS011;8760;52.248;20.952;2022-09-13T15:12:49;6.97;;;4.05;;
17283;SDS011;8760;52.248;20.952;2022-09-13T15:18:21;7.03;;;4.50;;
17283;SDS011;8760;52.248;20.952;2022-09-13T15:20:50;6.45;;;4.30;;